sensor_id;sensor_type;location;lat;lon;timestamp;pressure;altitude;pressure_sealevel;temperature;humidity
64402;BME280;50724;42.376;23.768;2023-02-28T00:00:13;93587.00;;;6.03;99.67
64402;BME280;50724;42.376;23.768;2023-02-28T00:03:23;93570.34;;;6.06;99.45
64402;BME280;50724;42.376;23.768;2023-02-28T00:06:24;93566.72;;;6.18;97.73
64402;BME280;50724;42.376;23.768;2023-02-28T00:09:24;93568.88;;;6.13;98.28
64402;BME280;50724;42.376;23.768;2023-02-28T00:12:25;93574.16;;;6.02;99.20
64402;BME280;50724;42.376;23.768;2023-02-28T00:15:26;93575.22;;;5.99;100.00
64402;BME280;50724;42.376;23.768;2023-02-28T00:18:26;93595.13;;;5.78;100.00
64402;BME280;50724;42.376;23.768;2023-02-28T00:21:27;93603.03;;;5.88;100.00
64402;BME280;50724;42.376;23.768;2023-02-28T00:24:27;93595.94;;;5.90;100.00
64402;BME280;50724;42.376;23.768;2023-02-28T00:27:27;93586.47;;;5.89;100.00
64402;BME280;50724;42.376;23.768;2023-02-28T00:30:28;93575.72;;;5.93;99.76
64402;BME280;50724;42.376;23.768;2023-02-28T00:33:28;93571.72;;;6.10;99.27
64402;BME280;50724;42.376;23.768;2023-02-28T00:36:29;93568.56;;;6.06;98.29
64402;BME280;50724;42.376;23.768;2023-02-28T00:39:29;93576.38;;;6.06;98.58
64402;BME280;50724;42.376;23.768;2023-02-28T00:42:30;93568.09;;;5.81;99.45
64402;BME280;50724;42.376;23.768;2023-02-28T00:45:30;93571.47;;;5.72;100.00
64402;BME280;50724;42.376;23.768;2023-02-28T00:48:31;93565.59;;;5.70;100.00
64402;BME280;50724;42.376;23.768;2023-02-28T00:51:31;93561.00;;;5.41;100.00
64402;BME280;50724;42.376;23.768;2023-02-28T00:54:32;93551.47;;;4.88;100.00
64402;BME280;50724;42.376;23.768;2023-02-28T00:57:32;93544.78;;;4.85;100.00
64402;BME280;50724;42.376;23.768;2023-02-28T01:00:33;93552.91;;;4.81;100.00
64402;BME280;50724;42.376;23.768;2023-02-28T01:03:33;93559.53;;;4.85;100.00
64402;BME280;50724;42.376;23.768;2023-02-28T01:06:33;93562.13;;;4.85;100.00
64402;BME280;50724;42.376;23.768;2023-02-28T01:09:34;93568.25;;;4.73;100.00
64402;BME280;50724;42.376;23.768;2023-02-28T01:12:34;93579.81;;;4.36;100.00
64402;BME280;50724;42.376;23.768;2023-02-28T01:15:35;93571.69;;;4.29;100.00
64402;BME280;50724;42.376;23.768;2023-02-28T01:18:36;93559.59;;;4.41;100.00
64402;BME280;50724;42.376;23.768;2023-02-28T01:21:37;93557.88;;;4.62;100.00
64402;BME280;50724;42.376;23.768;2023-02-28T01:24:37;93561.06;;;4.65;100.00
64402;BME280;50724;42.376;23.768;2023-02-28T01:27:38;93568.03;;;4.54;100.00
64402;BME280;50724;42.376;23.768;2023-02-28T01:30:39;93571.56;;;4.64;100.00
64402;BME280;50724;42.376;23.768;2023-02-28T01:33:40;93583.22;;;4.47;100.00
64402;BME280;50724;42.376;23.768;2023-02-28T01:36:40;93573.91;;;4.56;100.00
64402;BME280;50724;42.376;23.768;2023-02-28T01:39:41;93565.69;;;4.51;100.00
64402;BME280;50724;42.376;23.768;2023-02-28T01:42:41;93567.00;;;4.45;100.00
64402;BME280;50724;42.376;23.768;2023-02-28T01:45:41;93567.44;;;4.50;100.00
64402;BME280;50724;42.376;23.768;2023-02-28T01:48:54;93553.91;;;4.58;100.00
64402;BME280;50724;42.376;23.768;2023-02-28T01:51:57;93551.06;;;4.61;100.00
64402;BME280;50724;42.376;23.768;2023-02-28T01:54:59;93552.28;;;4.35;100.00
64402;BME280;50724;42.376;23.768;2023-02-28T01:58:03;93556.50;;;4.13;100.00
64402;BME280;50724;42.376;23.768;2023-02-28T02:01:04;93565.09;;;4.03;100.00
64402;BME280;50724;42.376;23.768;2023-02-28T02:04:05;93566.16;;;4.00;100.00
64402;BME280;50724;42.376;23.768;2023-02-28T02:07:14;93569.19;;;3.94;100.00
64402;BME280;50724;42.376;23.768;2023-02-28T02:10:21;93567.44;;;3.95;100.00
64402;BME280;50724;42.376;23.768;2023-02-28T02:17:42;93585.41;;;3.85;100.00
64402;BME280;50724;42.376;23.768;2023-02-28T02:31:20;93610.00;;;3.91;100.00
64402;BME280;50724;42.376;23.768;2023-02-28T02:38:24;93622.84;;;3.69;100.00
64402;BME280;50724;42.376;23.768;2023-02-28T02:41:53;93623.72;;;3.45;100.00
64402;BME280;50724;42.376;23.768;2023-02-28T02:45:05;93622.66;;;3.72;100.00
64402;BME280;50724;42.376;23.768;2023-02-28T02:48:11;93612.94;;;3.86;100.00
64402;BME280;50724;42.376;23.768;2023-02-28T02:51:17;93626.59;;;3.99;100.00
64402;BME280;50724;42.376;23.768;2023-02-28T02:54:31;93634.13;;;4.02;100.00
64402;BME280;50724;42.376;23.768;2023-02-28T02:57:41;93651.38;;;3.80;100.00
64402;BME280;50724;42.376;23.768;2023-02-28T03:00:51;93640.25;;;4.01;100.00
64402;BME280;50724;42.376;23.768;2023-02-28T03:04:16;93650.66;;;4.24;100.00
64402;BME280;50724;42.376;23.768;2023-02-28T03:07:17;93651.91;;;4.18;100.00
64402;BME280;50724;42.376;23.768;2023-02-28T03:10:39;93647.44;;;4.20;100.00
64402;BME280;50724;42.376;23.768;2023-02-28T03:24:19;93657.97;;;4.63;100.00
64402;BME280;50724;42.376;23.768;2023-02-28T03:27:26;93645.72;;;4.65;100.00
64402;BME280;50724;42.376;23.768;2023-02-28T03:30:35;93647.88;;;4.71;100.00
64402;BME280;50724;42.376;23.768;2023-02-28T03:33:39;93657.16;;;4.73;100.00
64402;BME280;50724;42.376;23.768;2023-02-28T03:36:48;93655.75;;;4.92;100.00
64402;BME280;50724;42.376;23.768;2023-02-28T03:39:58;93657.63;;;4.90;100.00
64402;BME280;50724;42.376;23.768;2023-02-28T03:43:04;93652.31;;;4.91;100.00
64402;BME280;50724;42.376;23.768;2023-02-28T03:46:10;93655.69;;;5.14;100.00
64402;BME280;50724;42.376;23.768;2023-02-28T03:49:23;93656.00;;;5.42;100.00
64402;BME280;50724;42.376;23.768;2023-02-28T03:52:27;93653.81;;;5.27;100.00
64402;BME280;50724;42.376;23.768;2023-02-28T03:55:33;93666.91;;;5.14;100.00
64402;BME280;50724;42.376;23.768;2023-02-28T04:01:46;93657.81;;;5.20;100.00
64402;BME280;50724;42.376;23.768;2023-02-28T04:04:47;93658.09;;;5.06;100.00
64402;BME280;50724;42.376;23.768;2023-02-28T04:07:48;93664.44;;;5.13;100.00
64402;BME280;50724;42.376;23.768;2023-02-28T04:10:57;93664.91;;;5.07;100.00
64402;BME280;50724;42.376;23.768;2023-02-28T04:13:59;93667.72;;;5.15;100.00
64402;BME280;50724;42.376;23.768;2023-02-28T04:16:59;93667.00;;;5.24;100.00
64402;BME280;50724;42.376;23.768;2023-02-28T04:20:00;93672.41;;;5.21;100.00
64402;BME280;50724;42.376;23.768;2023-02-28T04:23:00;93679.75;;;5.27;100.00
64402;BME280;50724;42.376;23.768;2023-02-28T04:26:01;93677.47;;;5.33;100.00
64402;BME280;50724;42.376;23.768;2023-02-28T04:29:03;93680.28;;;5.52;100.00
64402;BME280;50724;42.376;23.768;2023-02-28T04:32:04;93688.09;;;5.41;100.00
64402;BME280;50724;42.376;23.768;2023-02-28T04:35:05;93687.72;;;5.46;100.00
64402;BME280;50724;42.376;23.768;2023-02-28T04:38:05;93691.00;;;5.37;100.00
64402;BME280;50724;42.376;23.768;2023-02-28T04:41:06;93686.53;;;5.50;100.00
64402;BME280;50724;42.376;23.768;2023-02-28T04:44:06;93683.66;;;5.64;100.00
64402;BME280;50724;42.376;23.768;2023-02-28T04:47:06;93673.97;;;5.66;100.00
64402;BME280;50724;42.376;23.768;2023-02-28T04:50:08;93673.72;;;5.69;100.00
64402;BME280;50724;42.376;23.768;2023-02-28T04:53:08;93685.28;;;5.65;100.00
64402;BME280;50724;42.376;23.768;2023-02-28T04:56:14;93686.13;;;5.66;100.00
64402;BME280;50724;42.376;23.768;2023-02-28T04:59:14;93688.16;;;5.62;100.00
64402;BME280;50724;42.376;23.768;2023-02-28T05:02:15;93697.09;;;5.58;100.00
64402;BME280;50724;42.376;23.768;2023-02-28T05:05:15;93698.25;;;5.65;100.00
64402;BME280;50724;42.376;23.768;2023-02-28T05:08:18;93698.44;;;5.95;100.00
64402;BME280;50724;42.376;23.768;2023-02-28T05:11:21;93699.22;;;6.07;100.00
64402;BME280;50724;42.376;23.768;2023-02-28T05:14:22;93696.09;;;5.81;100.00
64402;BME280;50724;42.376;23.768;2023-02-28T05:17:22;93701.16;;;5.94;100.00
64402;BME280;50724;42.376;23.768;2023-02-28T05:20:22;93706.59;;;5.91;100.00
64402;BME280;50724;42.376;23.768;2023-02-28T05:23:23;93712.31;;;6.05;100.00
64402;BME280;50724;42.376;23.768;2023-02-28T05:26:25;93719.72;;;6.10;100.00
64402;BME280;50724;42.376;23.768;2023-02-28T05:29:25;93720.03;;;5.96;100.00
64402;BME280;50724;42.376;23.768;2023-02-28T05:32:26;93717.50;;;6.05;100.00
64402;BME280;50724;42.376;23.768;2023-02-28T05:35:26;93721.25;;;6.12;100.00
64402;BME280;50724;42.376;23.768;2023-02-28T05:38:27;93733.22;;;6.04;100.00
64402;BME280;50724;42.376;23.768;2023-02-28T05:42:08;93743.78;;;6.23;100.00
64402;BME280;50724;42.376;23.768;2023-02-28T05:45:17;93742.72;;;6.14;100.00
64402;BME280;50724;42.376;23.768;2023-02-28T05:48:17;93742.91;;;6.02;100.00
64402;BME280;50724;42.376;23.768;2023-02-28T05:51:18;93746.44;;;6.01;100.00
64402;BME280;50724;42.376;23.768;2023-02-28T05:54:18;93756.22;;;6.08;100.00
64402;BME280;50724;42.376;23.768;2023-02-28T05:57:19;93762.47;;;6.06;100.00
64402;BME280;50724;42.376;23.768;2023-02-28T06:00:19;93757.69;;;5.90;100.00
64402;BME280;50724;42.376;23.768;2023-02-28T06:03:20;93761.22;;;5.89;100.00
64402;BME280;50724;42.376;23.768;2023-02-28T06:06:20;93763.88;;;6.10;100.00
64402;BME280;50724;42.376;23.768;2023-02-28T06:09:20;93766.56;;;6.19;100.00
64402;BME280;50724;42.376;23.768;2023-02-28T06:12:21;93763.25;;;6.17;100.00
64402;BME280;50724;42.376;23.768;2023-02-28T06:15:21;93766.38;;;6.11;100.00
64402;BME280;50724;42.376;23.768;2023-02-28T06:18:22;93761.63;;;6.05;100.00
64402;BME280;50724;42.376;23.768;2023-02-28T06:21:22;93768.41;;;5.97;100.00
64402;BME280;50724;42.376;23.768;2023-02-28T06:24:24;93774.75;;;6.04;100.00
64402;BME280;50724;42.376;23.768;2023-02-28T06:27:25;93771.47;;;6.02;100.00
64402;BME280;50724;42.376;23.768;2023-02-28T06:30:25;93780.41;;;5.98;100.00
64402;BME280;50724;42.376;23.768;2023-02-28T06:33:26;93784.66;;;6.10;100.00
64402;BME280;50724;42.376;23.768;2023-02-28T06:36:27;93775.00;;;6.01;100.00
64402;BME280;50724;42.376;23.768;2023-02-28T06:39:29;93769.25;;;5.97;100.00
64402;BME280;50724;42.376;23.768;2023-02-28T06:42:29;93769.00;;;5.89;100.00
64402;BME280;50724;42.376;23.768;2023-02-28T06:45:31;93779.03;;;5.94;100.00
64402;BME280;50724;42.376;23.768;2023-02-28T06:48:31;93772.41;;;6.01;100.00
64402;BME280;50724;42.376;23.768;2023-02-28T06:51:32;93781.34;;;6.08;100.00
64402;BME280;50724;42.376;23.768;2023-02-28T06:54:32;93785.34;;;6.12;100.00
64402;BME280;50724;42.376;23.768;2023-02-28T06:57:34;93782.03;;;6.21;100.00
64402;BME280;50724;42.376;23.768;2023-02-28T07:00:34;93791.81;;;6.17;100.00
64402;BME280;50724;42.376;23.768;2023-02-28T07:03:36;93790.66;;;6.10;100.00
64402;BME280;50724;42.376;23.768;2023-02-28T07:06:36;93793.59;;;6.17;100.00
64402;BME280;50724;42.376;23.768;2023-02-28T07:09:37;93791.69;;;6.19;100.00
64402;BME280;50724;42.376;23.768;2023-02-28T07:12:37;93799.06;;;6.14;100.00
64402;BME280;50724;42.376;23.768;2023-02-28T07:15:38;93801.91;;;6.00;100.00
64402;BME280;50724;42.376;23.768;2023-02-28T07:18:38;93803.59;;;5.90;100.00
64402;BME280;50724;42.376;23.768;2023-02-28T07:21:39;93801.81;;;5.90;100.00
64402;BME280;50724;42.376;23.768;2023-02-28T07:24:39;93797.28;;;6.03;100.00
64402;BME280;50724;42.376;23.768;2023-02-28T07:27:39;93800.50;;;6.07;100.00
64402;BME280;50724;42.376;23.768;2023-02-28T07:30:40;93801.56;;;5.93;100.00
64402;BME280;50724;42.376;23.768;2023-02-28T07:33:42;93802.53;;;5.92;100.00
64402;BME280;50724;42.376;23.768;2023-02-28T07:36:42;93803.88;;;6.07;100.00
64402;BME280;50724;42.376;23.768;2023-02-28T07:39:43;93814.28;;;6.07;100.00
64402;BME280;50724;42.376;23.768;2023-02-28T07:42:43;93813.84;;;6.02;100.00
64402;BME280;50724;42.376;23.768;2023-02-28T07:45:44;93818.56;;;5.86;100.00
64402;BME280;50724;42.376;23.768;2023-02-28T07:48:45;93826.78;;;6.13;100.00
64402;BME280;50724;42.376;23.768;2023-02-28T07:51:45;93818.75;;;6.16;100.00
64402;BME280;50724;42.376;23.768;2023-02-28T07:54:45;93821.09;;;6.19;100.00
64402;BME280;50724;42.376;23.768;2023-02-28T07:57:46;93817.44;;;6.22;100.00
64402;BME280;50724;42.376;23.768;2023-02-28T08:00:46;93815.78;;;6.21;100.00
64402;BME280;50724;42.376;23.768;2023-02-28T08:03:47;93814.00;;;6.21;100.00
64402;BME280;50724;42.376;23.768;2023-02-28T08:06:47;93806.94;;;6.12;100.00
64402;BME280;50724;42.376;23.768;2023-02-28T08:09:47;93802.34;;;6.05;100.00
64402;BME280;50724;42.376;23.768;2023-02-28T08:12:48;93803.88;;;6.07;100.00
64402;BME280;50724;42.376;23.768;2023-02-28T08:15:48;93807.78;;;6.13;100.00
64402;BME280;50724;42.376;23.768;2023-02-28T08:18:50;93795.19;;;5.97;100.00
64402;BME280;50724;42.376;23.768;2023-02-28T08:21:51;93808.19;;;5.97;100.00
64402;BME280;50724;42.376;23.768;2023-02-28T08:24:52;93811.72;;;5.96;100.00
64402;BME280;50724;42.376;23.768;2023-02-28T08:27:52;93805.22;;;5.80;100.00
64402;BME280;50724;42.376;23.768;2023-02-28T08:30:54;93803.91;;;5.96;100.00
64402;BME280;50724;42.376;23.768;2023-02-28T08:33:55;93805.47;;;5.77;100.00
64402;BME280;50724;42.376;23.768;2023-02-28T08:36:58;93802.28;;;5.84;100.00
64402;BME280;50724;42.376;23.768;2023-02-28T08:39:59;93801.28;;;6.07;100.00
64402;BME280;50724;42.376;23.768;2023-02-28T08:43:00;93795.56;;;6.24;100.00
64402;BME280;50724;42.376;23.768;2023-02-28T08:46:00;93794.38;;;6.29;100.00
64402;BME280;50724;42.376;23.768;2023-02-28T08:49:01;93801.59;;;6.25;100.00
64402;BME280;50724;42.376;23.768;2023-02-28T08:52:02;93805.78;;;6.16;100.00
64402;BME280;50724;42.376;23.768;2023-02-28T08:55:02;93801.69;;;6.35;100.00
64402;BME280;50724;42.376;23.768;2023-02-28T08:58:02;93804.75;;;6.40;100.00
64402;BME280;50724;42.376;23.768;2023-02-28T09:01:20;93804.69;;;6.51;100.00
64402;BME280;50724;42.376;23.768;2023-02-28T09:04:21;93802.16;;;6.40;100.00
64402;BME280;50724;42.376;23.768;2023-02-28T09:07:22;93813.78;;;6.45;100.00
64402;BME280;50724;42.376;23.768;2023-02-28T09:10:22;93806.97;;;6.44;100.00
64402;BME280;50724;42.376;23.768;2023-02-28T09:13:26;93806.13;;;6.44;100.00
64402;BME280;50724;42.376;23.768;2023-02-28T09:16:27;93802.63;;;6.34;100.00
64402;BME280;50724;42.376;23.768;2023-02-28T09:19:27;93807.28;;;6.19;100.00
64402;BME280;50724;42.376;23.768;2023-02-28T09:22:28;93808.47;;;6.15;100.00
64402;BME280;50724;42.376;23.768;2023-02-28T09:25:28;93819.09;;;6.12;100.00
64402;BME280;50724;42.376;23.768;2023-02-28T09:28:29;93814.72;;;6.12;100.00
64402;BME280;50724;42.376;23.768;2023-02-28T09:31:29;93818.38;;;6.21;100.00
64402;BME280;50724;42.376;23.768;2023-02-28T09:34:30;93812.91;;;6.35;100.00
64402;BME280;50724;42.376;23.768;2023-02-28T09:37:31;93811.63;;;6.30;100.00
64402;BME280;50724;42.376;23.768;2023-02-28T09:40:31;93815.53;;;6.24;100.00
64402;BME280;50724;42.376;23.768;2023-02-28T09:43:35;93811.06;;;6.15;100.00
64402;BME280;50724;42.376;23.768;2023-02-28T09:46:42;93805.41;;;6.10;100.00
64402;BME280;50724;42.376;23.768;2023-02-28T09:49:47;93806.34;;;6.20;100.00
64402;BME280;50724;42.376;23.768;2023-02-28T09:52:49;93813.53;;;6.28;100.00
64402;BME280;50724;42.376;23.768;2023-02-28T09:55:58;93805.03;;;6.26;100.00
64402;BME280;50724;42.376;23.768;2023-02-28T09:59:10;93809.13;;;6.39;100.00
64402;BME280;50724;42.376;23.768;2023-02-28T10:02:39;93809.34;;;6.36;100.00
64402;BME280;50724;42.376;23.768;2023-02-28T10:06:29;93801.84;;;6.22;100.00
64402;BME280;50724;42.376;23.768;2023-02-28T10:09:13;93790.25;;;6.26;100.00
64402;BME280;50724;42.376;23.768;2023-02-28T10:12:16;93783.28;;;6.27;100.00
64402;BME280;50724;42.376;23.768;2023-02-28T10:15:16;93794.28;;;6.19;100.00
64402;BME280;50724;42.376;23.768;2023-02-28T10:18:23;93792.78;;;6.16;100.00
64402;BME280;50724;42.376;23.768;2023-02-28T10:21:34;93790.16;;;6.28;100.00
64402;BME280;50724;42.376;23.768;2023-02-28T10:24:39;93787.19;;;6.32;100.00
64402;BME280;50724;42.376;23.768;2023-02-28T10:27:40;93776.03;;;6.41;100.00
64402;BME280;50724;42.376;23.768;2023-02-28T10:30:44;93778.63;;;6.41;100.00
64402;BME280;50724;42.376;23.768;2023-02-28T10:33:49;93782.38;;;6.48;100.00
64402;BME280;50724;42.376;23.768;2023-02-28T10:36:50;93783.66;;;6.54;100.00
64402;BME280;50724;42.376;23.768;2023-02-28T10:39:51;93772.53;;;6.52;100.00
64402;BME280;50724;42.376;23.768;2023-02-28T10:43:05;93766.78;;;6.48;100.00
64402;BME280;50724;42.376;23.768;2023-02-28T10:46:16;93776.66;;;6.34;100.00
64402;BME280;50724;42.376;23.768;2023-02-28T10:49:26;93783.78;;;6.52;100.00
64402;BME280;50724;42.376;23.768;2023-02-28T10:52:40;93786.06;;;6.46;100.00
64402;BME280;50724;42.376;23.768;2023-02-28T10:55:41;93771.53;;;6.43;100.00
64402;BME280;50724;42.376;23.768;2023-02-28T11:01:57;93770.06;;;6.30;100.00
64402;BME280;50724;42.376;23.768;2023-02-28T11:04:57;93754.03;;;6.24;100.00
64402;BME280;50724;42.376;23.768;2023-02-28T11:08:14;93750.94;;;6.31;100.00
64402;BME280;50724;42.376;23.768;2023-02-28T11:11:16;93747.97;;;6.35;100.00
64402;BME280;50724;42.376;23.768;2023-02-28T11:14:28;93748.81;;;6.24;100.00
64402;BME280;50724;42.376;23.768;2023-02-28T11:17:39;93743.88;;;6.21;100.00
64402;BME280;50724;42.376;23.768;2023-02-28T11:20:50;93748.66;;;6.16;100.00
64402;BME280;50724;42.376;23.768;2023-02-28T11:23:59;93741.09;;;6.13;100.00
64402;BME280;50724;42.376;23.768;2023-02-28T11:27:01;93742.91;;;6.02;100.00
64402;BME280;50724;42.376;23.768;2023-02-28T11:30:02;93733.00;;;5.96;100.00
64402;BME280;50724;42.376;23.768;2023-02-28T11:33:23;93736.75;;;6.03;100.00
64402;BME280;50724;42.376;23.768;2023-02-28T11:36:32;93737.34;;;6.06;100.00
64402;BME280;50724;42.376;23.768;2023-02-28T11:39:33;93735.22;;;6.00;100.00
64402;BME280;50724;42.376;23.768;2023-02-28T11:42:50;93728.25;;;6.01;100.00
64402;BME280;50724;42.376;23.768;2023-02-28T11:46:26;93734.38;;;6.11;100.00
64402;BME280;50724;42.376;23.768;2023-02-28T11:55:57;93733.69;;;5.98;100.00
64402;BME280;50724;42.376;23.768;2023-02-28T12:05:44;93722.09;;;6.34;100.00
64402;BME280;50724;42.376;23.768;2023-02-28T12:08:53;93721.53;;;6.30;100.00
64402;BME280;50724;42.376;23.768;2023-02-28T12:12:16;93726.66;;;6.41;100.00
64402;BME280;50724;42.376;23.768;2023-02-28T12:28:54;93714.44;;;6.11;100.00
64402;BME280;50724;42.376;23.768;2023-02-28T12:32:18;93718.97;;;6.19;100.00
64402;BME280;50724;42.376;23.768;2023-02-28T12:38:47;93717.88;;;6.33;100.00
64402;BME280;50724;42.376;23.768;2023-02-28T12:45:24;93713.38;;;6.35;100.00
64402;BME280;50724;42.376;23.768;2023-02-28T12:48:31;93706.47;;;6.45;100.00
64402;BME280;50724;42.376;23.768;2023-02-28T12:51:38;93702.84;;;6.36;100.00
64402;BME280;50724;42.376;23.768;2023-02-28T12:55:03;93706.19;;;6.27;100.00
64402;BME280;50724;42.376;23.768;2023-02-28T12:58:38;93706.41;;;6.35;100.00
64402;BME280;50724;42.376;23.768;2023-02-28T13:08:31;93694.50;;;6.33;100.00
64402;BME280;50724;42.376;23.768;2023-02-28T13:14:39;93689.91;;;6.25;100.00
64402;BME280;50724;42.376;23.768;2023-02-28T13:17:40;93687.00;;;6.39;100.00
64402;BME280;50724;42.376;23.768;2023-02-28T13:20:47;93686.78;;;6.42;100.00
64402;BME280;50724;42.376;23.768;2023-02-28T13:36:50;93691.19;;;6.31;100.00
64402;BME280;50724;42.376;23.768;2023-02-28T13:39:53;93678.63;;;6.36;100.00
64402;BME280;50724;42.376;23.768;2023-02-28T13:42:54;93683.34;;;6.42;100.00
64402;BME280;50724;42.376;23.768;2023-02-28T13:46:08;93690.00;;;6.35;100.00
64402;BME280;50724;42.376;23.768;2023-02-28T13:52:26;93702.78;;;6.27;100.00
64402;BME280;50724;42.376;23.768;2023-02-28T13:59:03;93694.81;;;6.39;100.00
64402;BME280;50724;42.376;23.768;2023-02-28T14:02:43;93692.66;;;6.23;100.00
64402;BME280;50724;42.376;23.768;2023-02-28T14:05:45;93694.81;;;6.18;100.00
64402;BME280;50724;42.376;23.768;2023-02-28T14:15:58;93679.38;;;5.74;100.00
64402;BME280;50724;42.376;23.768;2023-02-28T14:19:02;93681.59;;;5.90;100.00
64402;BME280;50724;42.376;23.768;2023-02-28T14:25:40;93686.53;;;5.93;100.00
64402;BME280;50724;42.376;23.768;2023-02-28T14:42:33;93688.31;;;5.92;100.00
64402;BME280;50724;42.376;23.768;2023-02-28T14:45:35;93682.66;;;5.87;100.00
64402;BME280;50724;42.376;23.768;2023-02-28T14:48:37;93678.00;;;6.02;100.00
64402;BME280;50724;42.376;23.768;2023-02-28T14:51:39;93676.03;;;5.94;100.00
64402;BME280;50724;42.376;23.768;2023-02-28T14:54:40;93674.03;;;5.87;100.00
64402;BME280;50724;42.376;23.768;2023-02-28T14:57:50;93678.31;;;5.77;100.00
64402;BME280;50724;42.376;23.768;2023-02-28T15:00:52;93681.97;;;5.85;100.00
64402;BME280;50724;42.376;23.768;2023-02-28T15:04:00;93684.19;;;5.79;100.00
64402;BME280;50724;42.376;23.768;2023-02-28T15:07:14;93680.75;;;5.89;100.00
64402;BME280;50724;42.376;23.768;2023-02-28T15:10:20;93679.81;;;5.79;100.00
64402;BME280;50724;42.376;23.768;2023-02-28T15:13:22;93681.53;;;5.69;100.00
64402;BME280;50724;42.376;23.768;2023-02-28T15:16:39;93685.13;;;5.78;100.00
64402;BME280;50724;42.376;23.768;2023-02-28T15:19:45;93678.22;;;5.67;100.00
64402;BME280;50724;42.376;23.768;2023-02-28T15:22:50;93680.22;;;5.64;100.00
64402;BME280;50724;42.376;23.768;2023-02-28T15:25:53;93685.03;;;5.68;100.00
64402;BME280;50724;42.376;23.768;2023-02-28T15:29:00;93683.16;;;5.70;100.00
64402;BME280;50724;42.376;23.768;2023-02-28T15:32:04;93688.72;;;5.66;100.00
64402;BME280;50724;42.376;23.768;2023-02-28T15:35:35;93686.47;;;5.61;100.00
64402;BME280;50724;42.376;23.768;2023-02-28T15:38:36;93685.09;;;5.57;100.00
64402;BME280;50724;42.376;23.768;2023-02-28T15:41:37;93691.09;;;5.57;100.00
64402;BME280;50724;42.376;23.768;2023-02-28T15:44:38;93688.97;;;5.63;100.00
64402;BME280;50724;42.376;23.768;2023-02-28T15:47:38;93697.72;;;5.50;100.00
64402;BME280;50724;42.376;23.768;2023-02-28T15:50:39;93695.50;;;5.46;100.00
64402;BME280;50724;42.376;23.768;2023-02-28T15:53:59;93697.03;;;5.37;100.00
64402;BME280;50724;42.376;23.768;2023-02-28T15:57:07;93705.53;;;5.28;100.00
64402;BME280;50724;42.376;23.768;2023-02-28T16:00:18;93704.59;;;5.18;100.00
64402;BME280;50724;42.376;23.768;2023-02-28T16:03:26;93705.78;;;5.14;100.00
64402;BME280;50724;42.376;23.768;2023-02-28T16:10:00;93710.03;;;5.04;100.00
64402;BME280;50724;42.376;23.768;2023-02-28T16:13:01;93719.56;;;4.93;100.00
64402;BME280;50724;42.376;23.768;2023-02-28T16:16:02;93721.25;;;4.82;100.00
64402;BME280;50724;42.376;23.768;2023-02-28T16:19:03;93729.13;;;4.92;100.00
64402;BME280;50724;42.376;23.768;2023-02-28T16:22:03;93725.00;;;4.90;100.00
64402;BME280;50724;42.376;23.768;2023-02-28T16:25:04;93732.66;;;4.91;100.00
64402;BME280;50724;42.376;23.768;2023-02-28T16:28:15;93730.78;;;4.93;100.00
64402;BME280;50724;42.376;23.768;2023-02-28T16:31:18;93724.31;;;4.99;100.00
64402;BME280;50724;42.376;23.768;2023-02-28T16:34:19;93729.22;;;4.91;100.00
64402;BME280;50724;42.376;23.768;2023-02-28T16:37:20;93733.59;;;4.90;100.00
64402;BME280;50724;42.376;23.768;2023-02-28T16:40:23;93734.66;;;4.88;100.00
64402;BME280;50724;42.376;23.768;2023-02-28T16:43:26;93732.75;;;4.78;100.00
64402;BME280;50724;42.376;23.768;2023-02-28T16:46:31;93734.19;;;4.82;100.00
64402;BME280;50724;42.376;23.768;2023-02-28T16:49:33;93744.69;;;4.92;100.00
64402;BME280;50724;42.376;23.768;2023-02-28T16:52:33;93747.50;;;4.78;100.00
64402;BME280;50724;42.376;23.768;2023-02-28T16:55:34;93746.31;;;4.82;100.00
64402;BME280;50724;42.376;23.768;2023-02-28T16:58:34;93750.91;;;4.78;100.00
64402;BME280;50724;42.376;23.768;2023-02-28T17:01:35;93749.25;;;4.88;100.00
64402;BME280;50724;42.376;23.768;2023-02-28T17:04:36;93750.94;;;4.90;100.00
64402;BME280;50724;42.376;23.768;2023-02-28T17:07:36;93746.44;;;4.80;100.00
64402;BME280;50724;42.376;23.768;2023-02-28T17:10:36;93748.44;;;4.77;100.00
64402;BME280;50724;42.376;23.768;2023-02-28T17:13:37;93750.66;;;4.70;100.00
64402;BME280;50724;42.376;23.768;2023-02-28T17:16:38;93754.66;;;4.63;100.00
64402;BME280;50724;42.376;23.768;2023-02-28T17:19:48;93759.94;;;4.62;100.00
64402;BME280;50724;42.376;23.768;2023-02-28T17:22:49;93755.44;;;4.53;100.00
64402;BME280;50724;42.376;23.768;2023-02-28T17:25:50;93758.28;;;4.61;100.00
64402;BME280;50724;42.376;23.768;2023-02-28T17:28:55;93750.88;;;4.67;100.00
64402;BME280;50724;42.376;23.768;2023-02-28T17:32:04;93765.00;;;4.63;100.00
64402;BME280;50724;42.376;23.768;2023-02-28T17:35:05;93761.84;;;4.71;100.00
64402;BME280;50724;42.376;23.768;2023-02-28T17:38:15;93766.91;;;4.72;100.00
64402;BME280;50724;42.376;23.768;2023-02-28T17:41:16;93758.31;;;4.83;100.00
64402;BME280;50724;42.376;23.768;2023-02-28T17:44:16;93756.47;;;4.85;100.00
64402;BME280;50724;42.376;23.768;2023-02-28T17:47:17;93754.88;;;4.71;100.00
64402;BME280;50724;42.376;23.768;2023-02-28T17:50:20;93755.00;;;4.70;100.00
64402;BME280;50724;42.376;23.768;2023-02-28T17:53:21;93762.66;;;4.71;100.00
64402;BME280;50724;42.376;23.768;2023-02-28T17:56:24;93757.59;;;4.70;100.00
64402;BME280;50724;42.376;23.768;2023-02-28T17:59:25;93752.91;;;4.64;100.00
64402;BME280;50724;42.376;23.768;2023-02-28T18:02:33;93751.31;;;4.50;100.00
64402;BME280;50724;42.376;23.768;2023-02-28T18:05:33;93744.63;;;4.59;100.00
64402;BME280;50724;42.376;23.768;2023-02-28T18:08:35;93735.13;;;4.70;100.00